sensor_id;sensor_type;location;lat;lon;timestamp;P1;durP1;ratioP1;P2;durP2;ratioP2
48588;SDS011;34369;51.174;6.738;2023-08-01T00:01:37;25.20;;;23.40;;
48588;SDS011;34369;51.174;6.738;2023-08-01T00:04:09;24.67;;;22.98;;
48588;SDS011;34369;51.174;6.738;2023-08-01T00:06:42;24.90;;;23.20;;
48588;SDS011;34369;51.174;6.738;2023-08-01T00:09:14;24.65;;;23.05;;
48588;SDS011;34369;51.174;6.738;2023-08-01T00:11:48;25.00;;;23.30;;
48588;SDS011;34369;51.174;6.738;2023-08-01T00:14:20;25.33;;;23.73;;
48588;SDS011;34369;51.174;6.738;2023-08-01T00:16:54;25.10;;;23.40;;
48588;SDS011;34369;51.174;6.738;2023-08-01T00:19:26;25.63;;;23.83;;
48588;SDS011;34369;51.174;6.738;2023-08-01T00:21:59;25.52;;;23.67;;
48588;SDS011;34369;51.174;6.738;2023-08-01T00:24:31;24.42;;;22.73;;
48588;SDS011;34369;51.174;6.738;2023-08-01T00:27:05;25.40;;;23.70;;
48588;SDS011;34369;51.174;6.738;2023-08-01T00:29:39;25.40;;;23.70;;
48588;SDS011;34369;51.174;6.738;2023-08-01T00:32:11;25.90;;;24.20;;
48588;SDS011;34369;51.174;6.738;2023-08-01T00:34:43;26.02;;;24.23;;
48588;SDS011;34369;51.174;6.738;2023-08-01T00:37:15;25.50;;;23.70;;
48588;SDS011;34369;51.174;6.738;2023-08-01T00:39:47;26.13;;;24.42;;
48588;SDS011;34369;51.174;6.738;2023-08-01T00:42:21;25.45;;;23.65;;
48588;SDS011;34369;51.174;6.738;2023-08-01T00:44:53;25.85;;;24.15;;
48588;SDS011;34369;51.174;6.738;2023-08-01T00:47:25;25.38;;;23.67;;
48588;SDS011;34369;51.174;6.738;2023-08-01T00:49:57;25.52;;;23.83;;
48588;SDS011;34369;51.174;6.738;2023-08-01T00:52:29;25.63;;;23.92;;
48588;SDS011;34369;51.174;6.738;2023-08-01T00:55:04;24.85;;;23.15;;
48588;SDS011;34369;51.174;6.738;2023-08-01T00:57:39;25.27;;;23.58;;
48588;SDS011;34369;51.174;6.738;2023-08-01T01:00:13;25.23;;;23.52;;
48588;SDS011;34369;51.174;6.738;2023-08-01T01:02:45;25.85;;;24.15;;
48588;SDS011;34369;51.174;6.738;2023-08-01T01:05:18;25.70;;;24.00;;
48588;SDS011;34369;51.174;6.738;2023-08-01T01:07:52;25.70;;;23.83;;
48588;SDS011;34369;51.174;6.738;2023-08-01T01:10:27;25.30;;;23.60;;
48588;SDS011;34369;51.174;6.738;2023-08-01T01:13:01;25.33;;;23.63;;
48588;SDS011;34369;51.174;6.738;2023-08-01T01:15:33;25.10;;;23.40;;
48588;SDS011;34369;51.174;6.738;2023-08-01T01:18:06;24.77;;;23.17;;
48588;SDS011;34369;51.174;6.738;2023-08-01T01:20:40;25.30;;;23.60;;
48588;SDS011;34369;51.174;6.738;2023-08-01T01:23:12;25.42;;;23.77;;
48588;SDS011;34369;51.174;6.738;2023-08-01T01:25:45;25.67;;;23.98;;
48588;SDS011;34369;51.174;6.738;2023-08-01T01:28:17;25.63;;;23.92;;
48588;SDS011;34369;51.174;6.738;2023-08-01T01:30:50;25.35;;;23.55;;
48588;SDS011;34369;51.174;6.738;2023-08-01T01:33:24;24.58;;;22.98;;
48588;SDS011;34369;51.174;6.738;2023-08-01T01:35:59;25.42;;;23.73;;
48588;SDS011;34369;51.174;6.738;2023-08-01T01:38:32;26.27;;;24.57;;
48588;SDS011;34369;51.174;6.738;2023-08-01T01:41:04;25.90;;;24.20;;
48588;SDS011;34369;51.174;6.738;2023-08-01T01:43:36;24.73;;;23.13;;
48588;SDS011;34369;51.174;6.738;2023-08-01T01:46:10;25.67;;;23.98;;
48588;SDS011;34369;51.174;6.738;2023-08-01T01:48:43;25.73;;;23.90;;
48588;SDS011;34369;51.174;6.738;2023-08-01T01:51:16;24.60;;;23.00;;
48588;SDS011;34369;51.174;6.738;2023-08-01T01:53:49;25.63;;;23.92;;
48588;SDS011;34369;51.174;6.738;2023-08-01T01:56:21;26.33;;;24.63;;
48588;SDS011;34369;51.174;6.738;2023-08-01T01:58:53;25.23;;;23.58;;
48588;SDS011;34369;51.174;6.738;2023-08-01T02:01:25;25.70;;;23.83;;
48588;SDS011;34369;51.174;6.738;2023-08-01T02:03:57;25.45;;;23.75;;
48588;SDS011;34369;51.174;6.738;2023-08-01T02:06:33;25.35;;;23.73;;
48588;SDS011;34369;51.174;6.738;2023-08-01T02:09:06;25.42;;;23.63;;
48588;SDS011;34369;51.174;6.738;2023-08-01T02:11:38;25.63;;;23.92;;
48588;SDS011;34369;51.174;6.738;2023-08-01T02:14:10;26.10;;;24.30;;
48588;SDS011;34369;51.174;6.738;2023-08-01T02:16:42;26.17;;;24.48;;
48588;SDS011;34369;51.174;6.738;2023-08-01T02:19:15;26.02;;;24.33;;
48588;SDS011;34369;51.174;6.738;2023-08-01T02:21:49;26.30;;;24.52;;
48588;SDS011;34369;51.174;6.738;2023-08-01T02:24:21;25.83;;;23.92;;
48588;SDS011;34369;51.174;6.738;2023-08-01T02:26:53;26.40;;;24.58;;
48588;SDS011;34369;51.174;6.738;2023-08-01T02:29:25;26.58;;;24.77;;
48588;SDS011;34369;51.174;6.738;2023-08-01T02:31:57;27.23;;;25.42;;
48588;SDS011;34369;51.174;6.738;2023-08-01T02:34:29;26.88;;;25.17;;
48588;SDS011;34369;51.174;6.738;2023-08-01T02:37:03;26.30;;;24.60;;
48588;SDS011;34369;51.174;6.738;2023-08-01T02:39:36;26.52;;;24.83;;
48588;SDS011;34369;51.174;6.738;2023-08-01T02:42:09;27.30;;;25.50;;
48588;SDS011;34369;51.174;6.738;2023-08-01T02:44:41;27.15;;;25.23;;
48588;SDS011;34369;51.174;6.738;2023-08-01T02:47:14;26.90;;;25.10;;
48588;SDS011;34369;51.174;6.738;2023-08-01T02:49:46;27.83;;;26.02;;
48588;SDS011;34369;51.174;6.738;2023-08-01T02:52:19;27.05;;;25.15;;
48588;SDS011;34369;51.174;6.738;2023-08-01T02:54:52;26.33;;;24.63;;
48588;SDS011;34369;51.174;6.738;2023-08-01T02:57:24;26.98;;;25.25;;
48588;SDS011;34369;51.174;6.738;2023-08-01T02:59:56;26.70;;;24.80;;
48588;SDS011;34369;51.174;6.738;2023-08-01T03:02:29;26.50;;;24.80;;
48588;SDS011;34369;51.174;6.738;2023-08-01T03:05:01;26.80;;;25.02;;
48588;SDS011;34369;51.174;6.738;2023-08-01T03:07:36;26.95;;;25.15;;
48588;SDS011;34369;51.174;6.738;2023-08-01T03:10:08;28.20;;;26.20;;
48588;SDS011;34369;51.174;6.738;2023-08-01T03:12:41;27.42;;;25.63;;
48588;SDS011;34369;51.174;6.738;2023-08-01T03:15:13;28.23;;;26.33;;
48588;SDS011;34369;51.174;6.738;2023-08-01T03:17:47;28.48;;;26.55;;
48588;SDS011;34369;51.174;6.738;2023-08-01T03:20:19;28.50;;;26.40;;
48588;SDS011;34369;51.174;6.738;2023-08-01T03:22:54;28.70;;;26.73;;
48588;SDS011;34369;51.174;6.738;2023-08-01T03:25:26;28.85;;;26.77;;
48588;SDS011;34369;51.174;6.738;2023-08-01T03:27:58;28.30;;;26.35;;
48588;SDS011;34369;51.174;6.738;2023-08-01T03:30:31;29.02;;;27.13;;
48588;SDS011;34369;51.174;6.738;2023-08-01T03:33:04;30.45;;;28.35;;
48588;SDS011;34369;51.174;6.738;2023-08-01T03:35:36;28.98;;;26.98;;
48588;SDS011;34369;51.174;6.738;2023-08-01T03:38:09;28.83;;;26.73;;
48588;SDS011;34369;51.174;6.738;2023-08-01T03:40:42;29.05;;;26.95;;
48588;SDS011;34369;51.174;6.738;2023-08-01T03:43:14;29.08;;;27.08;;
48588;SDS011;34369;51.174;6.738;2023-08-01T03:45:46;29.83;;;27.83;;
48588;SDS011;34369;51.174;6.738;2023-08-01T03:48:19;30.48;;;27.92;;
48588;SDS011;34369;51.174;6.738;2023-08-01T03:50:51;29.50;;;27.45;;
48588;SDS011;34369;51.174;6.738;2023-08-01T03:53:25;29.23;;;27.10;;
48588;SDS011;34369;51.174;6.738;2023-08-01T03:55:58;29.73;;;27.73;;
48588;SDS011;34369;51.174;6.738;2023-08-01T03:58:30;29.33;;;27.33;;
48588;SDS011;34369;51.174;6.738;2023-08-01T04:01:02;32.65;;;30.35;;
48588;SDS011;34369;51.174;6.738;2023-08-01T04:03:36;31.27;;;28.98;;
48588;SDS011;34369;51.174;6.738;2023-08-01T04:06:08;31.27;;;29.08;;
48588;SDS011;34369;51.174;6.738;2023-08-01T04:08:42;30.95;;;28.65;;
48588;SDS011;34369;51.174;6.738;2023-08-01T04:11:15;31.60;;;29.33;;
48588;SDS011;34369;51.174;6.738;2023-08-01T04:13:47;31.65;;;29.35;;
48588;SDS011;34369;51.174;6.738;2023-08-01T04:16:19;33.08;;;30.48;;
48588;SDS011;34369;51.174;6.738;2023-08-01T04:18:52;32.70;;;30.30;;
48588;SDS011;34369;51.174;6.738;2023-08-01T04:21:24;32.65;;;30.27;;
48588;SDS011;34369;51.174;6.738;2023-08-01T04:23:58;33.90;;;31.40;;
48588;SDS011;34369;51.174;6.738;2023-08-01T04:26:30;32.33;;;29.92;;
48588;SDS011;34369;51.174;6.738;2023-08-01T04:29:02;33.90;;;31.38;;
48588;SDS011;34369;51.174;6.738;2023-08-01T04:31:35;33.60;;;31.20;;
48588;SDS011;34369;51.174;6.738;2023-08-01T04:34:08;33.92;;;31.45;;
48588;SDS011;34369;51.174;6.738;2023-08-01T04:36:40;34.30;;;31.90;;
48588;SDS011;34369;51.174;6.738;2023-08-01T04:39:13;33.72;;;31.23;;
48588;SDS011;34369;51.174;6.738;2023-08-01T04:41:45;33.63;;;31.25;;
48588;SDS011;34369;51.174;6.738;2023-08-01T04:44:19;33.30;;;31.00;;
48588;SDS011;34369;51.174;6.738;2023-08-01T04:46:52;34.78;;;32.00;;
48588;SDS011;34369;51.174;6.738;2023-08-01T04:49:25;32.88;;;30.58;;
48588;SDS011;34369;51.174;6.738;2023-08-01T04:51:57;33.92;;;31.52;;
48588;SDS011;34369;51.174;6.738;2023-08-01T04:54:31;33.20;;;30.80;;
48588;SDS011;34369;51.174;6.738;2023-08-01T04:57:04;33.78;;;31.23;;
48588;SDS011;34369;51.174;6.738;2023-08-01T04:59:37;33.65;;;31.10;;
48588;SDS011;34369;51.174;6.738;2023-08-01T05:02:09;32.70;;;30.38;;
48588;SDS011;34369;51.174;6.738;2023-08-01T05:04:41;33.58;;;30.98;;
48588;SDS011;34369;51.174;6.738;2023-08-01T05:07:13;32.55;;;30.13;;
48588;SDS011;34369;51.174;6.738;2023-08-01T05:09:47;33.17;;;30.70;;
48588;SDS011;34369;51.174;6.738;2023-08-01T05:12:19;31.25;;;28.95;;
48588;SDS011;34369;51.174;6.738;2023-08-01T05:14:52;32.08;;;29.80;;
48588;SDS011;34369;51.174;6.738;2023-08-01T05:17:24;32.20;;;29.90;;
48588;SDS011;34369;51.174;6.738;2023-08-01T05:19:58;31.80;;;29.55;;
48588;SDS011;34369;51.174;6.738;2023-08-01T05:22:30;31.83;;;29.45;;
48588;SDS011;34369;51.174;6.738;2023-08-01T05:25:05;31.60;;;29.40;;
48588;SDS011;34369;51.174;6.738;2023-08-01T05:27:38;31.98;;;29.70;;
48588;SDS011;34369;51.174;6.738;2023-08-01T05:30:11;31.33;;;29.02;;
48588;SDS011;34369;51.174;6.738;2023-08-01T05:32:43;32.55;;;30.02;;
48588;SDS011;34369;51.174;6.738;2023-08-01T05:35:17;31.92;;;29.63;;
48588;SDS011;34369;51.174;6.738;2023-08-01T05:37:49;32.55;;;30.25;;
48588;SDS011;34369;51.174;6.738;2023-08-01T05:40:23;31.83;;;29.60;;
48588;SDS011;34369;51.174;6.738;2023-08-01T05:42:55;32.65;;;30.00;;
48588;SDS011;34369;51.174;6.738;2023-08-01T05:45:27;30.55;;;28.25;;
48588;SDS011;34369;51.174;6.738;2023-08-01T05:48:00;30.92;;;28.65;;
48588;SDS011;34369;51.174;6.738;2023-08-01T05:50:33;30.13;;;27.83;;
48588;SDS011;34369;51.174;6.738;2023-08-01T05:53:06;31.30;;;29.08;;
48588;SDS011;34369;51.174;6.738;2023-08-01T05:55:43;31.10;;;28.80;;
48588;SDS011;34369;51.174;6.738;2023-08-01T05:58:15;30.50;;;28.42;;
48588;SDS011;34369;51.174;6.738;2023-08-01T06:00:48;31.75;;;29.30;;
48588;SDS011;34369;51.174;6.738;2023-08-01T06:03:21;30.77;;;28.52;;
48588;SDS011;34369;51.174;6.738;2023-08-01T06:05:54;30.33;;;28.05;;
48588;SDS011;34369;51.174;6.738;2023-08-01T06:08:26;30.23;;;28.02;;
48588;SDS011;34369;51.174;6.738;2023-08-01T06:11:00;30.75;;;28.55;;
48588;SDS011;34369;51.174;6.738;2023-08-01T06:13:32;31.60;;;29.30;;
48588;SDS011;34369;51.174;6.738;2023-08-01T06:16:04;30.58;;;28.38;;
48588;SDS011;34369;51.174;6.738;2023-08-01T06:18:36;31.60;;;29.20;;
48588;SDS011;34369;51.174;6.738;2023-08-01T06:21:08;31.80;;;29.30;;
48588;SDS011;34369;51.174;6.738;2023-08-01T06:23:42;30.27;;;28.13;;
48588;SDS011;34369;51.174;6.738;2023-08-01T06:26:16;31.30;;;29.00;;
48588;SDS011;34369;51.174;6.738;2023-08-01T06:28:48;30.45;;;28.15;;
48588;SDS011;34369;51.174;6.738;2023-08-01T06:31:23;30.92;;;28.63;;
48588;SDS011;34369;51.174;6.738;2023-08-01T06:33:56;30.95;;;28.70;;
48588;SDS011;34369;51.174;6.738;2023-08-01T06:36:29;31.13;;;28.60;;
48588;SDS011;34369;51.174;6.738;2023-08-01T06:39:02;31.38;;;29.08;;
48588;SDS011;34369;51.174;6.738;2023-08-01T06:41:37;30.05;;;27.77;;
48588;SDS011;34369;51.174;6.738;2023-08-01T06:44:10;31.08;;;28.67;;
48588;SDS011;34369;51.174;6.738;2023-08-01T06:46:42;30.88;;;28.55;;
48588;SDS011;34369;51.174;6.738;2023-08-01T06:49:15;30.23;;;28.02;;
48588;SDS011;34369;51.174;6.738;2023-08-01T06:51:47;30.85;;;28.38;;
48588;SDS011;34369;51.174;6.738;2023-08-01T06:54:20;30.95;;;28.67;;
48588;SDS011;34369;51.174;6.738;2023-08-01T06:56:53;30.05;;;27.75;;
48588;SDS011;34369;51.174;6.738;2023-08-01T06:59:26;31.10;;;28.90;;
48588;SDS011;34369;51.174;6.738;2023-08-01T07:01:58;30.35;;;28.05;;
48588;SDS011;34369;51.174;6.738;2023-08-01T07:04:32;30.25;;;28.05;;
48588;SDS011;34369;51.174;6.738;2023-08-01T07:07:05;30.80;;;28.60;;
48588;SDS011;34369;51.174;6.738;2023-08-01T07:09:40;30.73;;;28.58;;
48588;SDS011;34369;51.174;6.738;2023-08-01T07:12:14;29.63;;;27.52;;
48588;SDS011;34369;51.174;6.738;2023-08-01T07:17:21;30.00;;;27.70;;
48588;SDS011;34369;51.174;6.738;2023-08-01T07:19:53;30.70;;;28.20;;
48588;SDS011;34369;51.174;6.738;2023-08-01T07:22:25;30.13;;;27.67;;
48588;SDS011;34369;51.174;6.738;2023-08-01T07:24:57;29.55;;;27.42;;
48588;SDS011;34369;51.174;6.738;2023-08-01T07:27:33;29.30;;;27.10;;
48588;SDS011;34369;51.174;6.738;2023-08-01T07:30:08;29.92;;;27.73;;
48588;SDS011;34369;51.174;6.738;2023-08-01T07:32:42;30.02;;;27.88;;
48588;SDS011;34369;51.174;6.738;2023-08-01T07:35:15;29.45;;;27.30;;
48588;SDS011;34369;51.174;6.738;2023-08-01T07:37:47;31.33;;;28.92;;
48588;SDS011;34369;51.174;6.738;2023-08-01T07:40:20;31.63;;;29.05;;
48588;SDS011;34369;51.174;6.738;2023-08-01T07:42:53;30.83;;;28.52;;
48588;SDS011;34369;51.174;6.738;2023-08-01T07:45:26;29.95;;;27.75;;
48588;SDS011;34369;51.174;6.738;2023-08-01T07:47:58;29.48;;;27.10;;
48588;SDS011;34369;51.174;6.738;2023-08-01T07:50:30;30.27;;;28.02;;
48588;SDS011;34369;51.174;6.738;2023-08-01T07:53:03;30.30;;;28.10;;
48588;SDS011;34369;51.174;6.738;2023-08-01T07:55:35;29.10;;;27.00;;
48588;SDS011;34369;51.174;6.738;2023-08-01T07:58:10;28.63;;;26.33;;
48588;SDS011;34369;51.174;6.738;2023-08-01T08:00:45;29.02;;;26.63;;
48588;SDS011;34369;51.174;6.738;2023-08-01T08:03:18;27.95;;;25.65;;
48588;SDS011;34369;51.174;6.738;2023-08-01T08:05:52;28.10;;;25.85;;
48588;SDS011;34369;51.174;6.738;2023-08-01T08:08:24;28.13;;;25.80;;
48588;SDS011;34369;51.174;6.738;2023-08-01T08:10:57;28.15;;;26.05;;
48588;SDS011;34369;51.174;6.738;2023-08-01T08:13:30;27.88;;;25.83;;
48588;SDS011;34369;51.174;6.738;2023-08-01T08:16:02;28.17;;;25.85;;
48588;SDS011;34369;51.174;6.738;2023-08-01T08:18:36;28.52;;;26.33;;
48588;SDS011;34369;51.174;6.738;2023-08-01T08:21:08;27.95;;;25.52;;
48588;SDS011;34369;51.174;6.738;2023-08-01T08:23:40;27.75;;;25.60;;
48588;SDS011;34369;51.174;6.738;2023-08-01T08:26:13;28.00;;;25.80;;
48588;SDS011;34369;51.174;6.738;2023-08-01T08:28:47;27.27;;;25.15;;
48588;SDS011;34369;51.174;6.738;2023-08-01T08:31:19;27.30;;;25.30;;
48588;SDS011;34369;51.174;6.738;2023-08-01T08:33:51;28.30;;;26.30;;
48588;SDS011;34369;51.174;6.738;2023-08-01T08:36:26;28.65;;;26.33;;
48588;SDS011;34369;51.174;6.738;2023-08-01T08:38:58;27.30;;;25.20;;
48588;SDS011;34369;51.174;6.738;2023-08-01T08:41:32;27.77;;;25.58;;
48588;SDS011;34369;51.174;6.738;2023-08-01T08:44:10;28.45;;;26.25;;
48588;SDS011;34369;51.174;6.738;2023-08-01T08:46:49;27.00;;;24.90;;
48588;SDS011;34369;51.174;6.738;2023-08-01T08:49:24;27.30;;;25.30;;
48588;SDS011;34369;51.174;6.738;2023-08-01T08:51:57;27.80;;;25.80;;
48588;SDS011;34369;51.174;6.738;2023-08-01T08:54:30;27.80;;;25.60;;
48588;SDS011;34369;51.174;6.738;2023-08-01T08:57:04;27.30;;;25.35;;
48588;SDS011;34369;51.174;6.738;2023-08-01T08:59:39;27.92;;;25.60;;
48588;SDS011;34369;51.174;6.738;2023-08-01T09:02:13;27.27;;;25.25;;
48588;SDS011;34369;51.174;6.738;2023-08-01T09:04:47;26.40;;;24.48;;
48588;SDS011;34369;51.174;6.738;2023-08-01T09:07:20;25.58;;;23.55;;
48588;SDS011;34369;51.174;6.738;2023-08-01T09:09:58;25.45;;;23.30;;
48588;SDS011;34369;51.174;6.738;2023-08-01T09:12:33;24.48;;;22.50;;
48588;SDS011;34369;51.174;6.738;2023-08-01T09:15:08;25.60;;;23.65;;
48588;SDS011;34369;51.174;6.738;2023-08-01T09:17:48;25.55;;;23.70;;
48588;SDS011;34369;51.174;6.738;2023-08-01T09:20:22;25.95;;;24.02;;
48588;SDS011;34369;51.174;6.738;2023-08-01T09:22:54;25.30;;;23.40;;
48588;SDS011;34369;51.174;6.738;2023-08-01T09:25:35;25.33;;;23.35;;
48588;SDS011;34369;51.174;6.738;2023-08-01T09:28:17;25.20;;;23.20;;
48588;SDS011;34369;51.174;6.738;2023-08-01T09:30:52;26.27;;;24.25;;
48588;SDS011;34369;51.174;6.738;2023-08-01T09:33:36;25.88;;;23.90;;
48588;SDS011;34369;51.174;6.738;2023-08-01T09:36:10;25.55;;;23.65;;
48588;SDS011;34369;51.174;6.738;2023-08-01T09:38:57;25.23;;;23.42;;
48588;SDS011;34369;51.174;6.738;2023-08-01T09:41:30;25.77;;;23.88;;
48588;SDS011;34369;51.174;6.738;2023-08-01T09:44:03;25.55;;;23.58;;
48588;SDS011;34369;51.174;6.738;2023-08-01T09:46:39;25.77;;;23.88;;
48588;SDS011;34369;51.174;6.738;2023-08-01T09:49:12;25.25;;;23.35;;
48588;SDS011;34369;51.174;6.738;2023-08-01T09:51:46;25.33;;;23.40;;
48588;SDS011;34369;51.174;6.738;2023-08-01T09:54:20;25.90;;;24.10;;
48588;SDS011;34369;51.174;6.738;2023-08-01T09:56:53;25.83;;;23.83;;
48588;SDS011;34369;51.174;6.738;2023-08-01T09:59:26;25.33;;;23.23;;
48588;SDS011;34369;51.174;6.738;2023-08-01T10:02:00;25.08;;;23.05;;
48588;SDS011;34369;51.174;6.738;2023-08-01T10:04:34;25.33;;;23.35;;
48588;SDS011;34369;51.174;6.738;2023-08-01T10:07:11;25.52;;;23.38;;
48588;SDS011;34369;51.174;6.738;2023-08-01T10:09:44;24.80;;;22.90;;
48588;SDS011;34369;51.174;6.738;2023-08-01T10:12:17;25.10;;;23.25;;
48588;SDS011;34369;51.174;6.738;2023-08-01T10:14:50;24.85;;;23.02;;
48588;SDS011;34369;51.174;6.738;2023-08-01T10:17:25;24.70;;;22.90;;
48588;SDS011;34369;51.174;6.738;2023-08-01T10:19:57;25.45;;;23.55;;
48588;SDS011;34369;51.174;6.738;2023-08-01T10:22:34;24.63;;;22.65;;
48588;SDS011;34369;51.174;6.738;2023-08-01T10:25:07;25.15;;;23.30;;
48588;SDS011;34369;51.174;6.738;2023-08-01T10:27:40;25.35;;;23.50;;
48588;SDS011;34369;51.174;6.738;2023-08-01T10:30:12;25.13;;;23.23;;
48588;SDS011;34369;51.174;6.738;2023-08-01T10:32:46;25.23;;;23.10;;
48588;SDS011;34369;51.174;6.738;2023-08-01T10:35:34;25.15;;;23.25;;
48588;SDS011;34369;51.174;6.738;2023-08-01T10:38:07;25.13;;;23.30;;
48588;SDS011;34369;51.174;6.738;2023-08-01T10:40:42;25.25;;;23.40;;
48588;SDS011;34369;51.174;6.738;2023-08-01T10:43:21;24.95;;;23.05;;
48588;SDS011;34369;51.174;6.738;2023-08-01T10:46:00;24.67;;;22.88;;
48588;SDS011;34369;51.174;6.738;2023-08-01T10:48:34;24.85;;;22.95;;
48588;SDS011;34369;51.174;6.738;2023-08-01T10:51:19;25.00;;;23.20;;
48588;SDS011;34369;51.174;6.738;2023-08-01T10:53:51;24.58;;;22.63;;
48588;SDS011;34369;51.174;6.738;2023-08-01T10:56:24;24.80;;;22.90;;
48588;SDS011;34369;51.174;6.738;2023-08-01T10:58:57;25.48;;;23.58;;
48588;SDS011;34369;51.174;6.738;2023-08-01T11:01:30;25.23;;;23.23;;
48588;SDS011;34369;51.174;6.738;2023-08-01T11:04:03;25.42;;;23.42;;
48588;SDS011;34369;51.174;6.738;2023-08-01T11:06:46;24.73;;;22.92;;
48588;SDS011;34369;51.174;6.738;2023-08-01T11:09:20;24.35;;;22.55;;
48588;SDS011;34369;51.174;6.738;2023-08-01T11:11:54;24.60;;;22.60;;
48588;SDS011;34369;51.174;6.738;2023-08-01T11:14:28;24.13;;;22.17;;
48588;SDS011;34369;51.174;6.738;2023-08-01T11:17:01;24.13;;;22.33;;
48588;SDS011;34369;51.174;6.738;2023-08-01T11:19:36;24.85;;;22.95;;
48588;SDS011;34369;51.174;6.738;2023-08-01T11:22:09;23.88;;;22.00;;
48588;SDS011;34369;51.174;6.738;2023-08-01T11:24:44;23.58;;;21.83;;
48588;SDS011;34369;51.174;6.738;2023-08-01T11:27:22;24.33;;;22.42;;
48588;SDS011;34369;51.174;6.738;2023-08-01T11:29:54;24.50;;;22.70;;
48588;SDS011;34369;51.174;6.738;2023-08-01T11:32:34;25.15;;;23.00;;
48588;SDS011;34369;51.174;6.738;2023-08-01T11:35:16;25.48;;;23.60;;
48588;SDS011;34369;51.174;6.738;2023-08-01T11:37:49;25.17;;;23.20;;
48588;SDS011;34369;51.174;6.738;2023-08-01T11:40:22;24.63;;;22.83;;
48588;SDS011;34369;51.174;6.738;2023-08-01T11:42:56;25.42;;;23.55;;
48588;SDS011;34369;51.174;6.738;2023-08-01T11:45:29;25.10;;;23.23;;
48588;SDS011;34369;51.174;6.738;2023-08-01T11:48:02;25.60;;;23.85;;
48588;SDS011;34369;51.174;6.738;2023-08-01T11:50:36;25.10;;;23.40;;
48588;SDS011;34369;51.174;6.738;2023-08-01T11:53:17;25.52;;;23.75;;
48588;SDS011;34369;51.174;6.738;2023-08-01T11:55:51;26.58;;;24.67;;
48588;SDS011;34369;51.174;6.738;2023-08-01T11:58:27;26.30;;;24.40;;
48588;SDS011;34369;51.174;6.738;2023-08-01T12:01:02;25.90;;;24.20;;
48588;SDS011;34369;51.174;6.738;2023-08-01T12:03:42;26.52;;;24.63;;
48588;SDS011;34369;51.174;6.738;2023-08-01T12:06:19;26.02;;;23.88;;
48588;SDS011;34369;51.174;6.738;2023-08-01T12:08:54;25.25;;;23.35;;
48588;SDS011;34369;51.174;6.738;2023-08-01T12:11:38;26.00;;;23.98;;
48588;SDS011;34369;51.174;6.738;2023-08-01T12:14:11;25.27;;;23.40;;
48588;SDS011;34369;51.174;6.738;2023-08-01T12:16:46;24.92;;;23.23;;
48588;SDS011;34369;51.174;6.738;2023-08-01T12:19:18;25.92;;;24.08;;
48588;SDS011;34369;51.174;6.738;2023-08-01T12:21:53;27.10;;;25.10;;
48588;SDS011;34369;51.174;6.738;2023-08-01T12:24:26;25.98;;;24.17;;
48588;SDS011;34369;51.174;6.738;2023-08-01T12:26:59;25.88;;;24.08;;
48588;SDS011;34369;51.174;6.738;2023-08-01T12:29:31;25.63;;;23.83;;
48588;SDS011;34369;51.174;6.738;2023-08-01T12:32:06;26.10;;;24.15;;
48588;SDS011;34369;51.174;6.738;2023-08-01T12:34:39;26.15;;;24.13;;
48588;SDS011;34369;51.174;6.738;2023-08-01T12:37:14;24.92;;;23.13;;
48588;SDS011;34369;51.174;6.738;2023-08-01T12:39:46;24.47;;;22.57;;
48588;SDS011;34369;51.174;6.738;2023-08-01T12:42:19;24.73;;;22.83;;
48588;SDS011;34369;51.174;6.738;2023-08-01T12:44:54;23.90;;;22.10;;
48588;SDS011;34369;51.174;6.738;2023-08-01T12:47:26;23.23;;;21.50;;
48588;SDS011;34369;51.174;6.738;2023-08-01T12:49:59;24.52;;;22.63;;
48588;SDS011;34369;51.174;6.738;2023-08-01T12:52:34;24.50;;;22.70;;
48588;SDS011;34369;51.174;6.738;2023-08-01T12:55:07;24.52;;;22.48;;
48588;SDS011;34369;51.174;6.738;2023-08-01T12:57:41;24.42;;;22.65;;
48588;SDS011;34369;51.174;6.738;2023-08-01T13:00:15;24.83;;;22.85;;
48588;SDS011;34369;51.174;6.738;2023-08-01T13:02:53;24.90;;;23.10;;
48588;SDS011;34369;51.174;6.738;2023-08-01T13:05:26;24.75;;;22.98;;
48588;SDS011;34369;51.174;6.738;2023-08-01T13:08:00;24.98;;;23.17;;
48588;SDS011;34369;51.174;6.738;2023-08-01T13:10:33;25.27;;;23.27;;
48588;SDS011;34369;51.174;6.738;2023-08-01T13:13:08;25.23;;;23.30;;
48588;SDS011;34369;51.174;6.738;2023-08-01T13:15:40;24.88;;;22.98;;
48588;SDS011;34369;51.174;6.738;2023-08-01T13:18:13;24.80;;;22.95;;
48588;SDS011;34369;51.174;6.738;2023-08-01T13:20:49;24.90;;;23.02;;
48588;SDS011;34369;51.174;6.738;2023-08-01T13:23:24;24.55;;;22.65;;
48588;SDS011;34369;51.174;6.738;2023-08-01T13:25:56;24.85;;;22.92;;
48588;SDS011;34369;51.174;6.738;2023-08-01T13:28:32;24.90;;;22.87;;
48588;SDS011;34369;51.174;6.738;2023-08-01T13:31:04;24.55;;;22.75;;
48588;SDS011;34369;51.174;6.738;2023-08-01T13:33:38;24.23;;;22.42;;
48588;SDS011;34369;51.174;6.738;2023-08-01T13:36:10;24.20;;;22.50;;
48588;SDS011;34369;51.174;6.738;2023-08-01T13:38:44;24.13;;;22.33;;
48588;SDS011;34369;51.174;6.738;2023-08-01T13:41:17;23.98;;;22.17;;
48588;SDS011;34369;51.174;6.738;2023-08-01T13:43:48;24.67;;;22.45;;
48588;SDS011;34369;51.174;6.738;2023-08-01T13:46:21;24.40;;;22.55;;
48588;SDS011;34369;51.174;6.738;2023-08-01T13:48:53;24.17;;;22.38;;
48588;SDS011;34369;51.174;6.738;2023-08-01T13:51:26;24.80;;;22.80;;
48588;SDS011;34369;51.174;6.738;2023-08-01T13:54:00;24.35;;;22.45;;
48588;SDS011;34369;51.174;6.738;2023-08-01T13:56:32;24.17;;;22.27;;
48588;SDS011;34369;51.174;6.738;2023-08-01T13:59:04;23.63;;;21.92;;
48588;SDS011;34369;51.174;6.738;2023-08-01T14:01:36;23.83;;;22.00;;
48588;SDS011;34369;51.174;6.738;2023-08-01T14:04:09;23.90;;;22.10;;
48588;SDS011;34369;51.174;6.738;2023-08-01T14:06:43;23.85;;;21.95;;
48588;SDS011;34369;51.174;6.738;2023-08-01T14:09:16;23.60;;;21.70;;
48588;SDS011;34369;51.174;6.738;2023-08-01T14:11:48;23.83;;;21.75;;
48588;SDS011;34369;51.174;6.738;2023-08-01T14:14:20;23.48;;;21.58;;
48588;SDS011;34369;51.174;6.738;2023-08-01T14:16:53;23.48;;;21.55;;
48588;SDS011;34369;51.174;6.738;2023-08-01T14:19:26;23.65;;;21.75;;
48588;SDS011;34369;51.174;6.738;2023-08-01T14:21:59;23.05;;;21.25;;
48588;SDS011;34369;51.174;6.738;2023-08-01T14:24:34;23.60;;;21.90;;
48588;SDS011;34369;51.174;6.738;2023-08-01T14:27:06;23.52;;;21.70;;
48588;SDS011;34369;51.174;6.738;2023-08-01T14:29:39;23.77;;;21.98;;
48588;SDS011;34369;51.174;6.738;2023-08-01T14:32:11;23.08;;;21.38;;
48588;SDS011;34369;51.174;6.738;2023-08-01T14:34:43;24.08;;;22.25;;
48588;SDS011;34369;51.174;6.738;2023-08-01T14:37:15;24.08;;;22.05;;
48588;SDS011;34369;51.174;6.738;2023-08-01T14:39:50;23.90;;;22.10;;
48588;SDS011;34369;51.174;6.738;2023-08-01T14:42:22;23.25;;;21.55;;
48588;SDS011;34369;51.174;6.738;2023-08-01T14:44:55;23.00;;;21.30;;
48588;SDS011;34369;51.174;6.738;2023-08-01T14:47:28;22.88;;;20.92;;
48588;SDS011;34369;51.174;6.738;2023-08-01T14:50:01;22.70;;;21.00;;
48588;SDS011;34369;51.174;6.738;2023-08-01T14:52:34;23.50;;;21.50;;
48588;SDS011;34369;51.174;6.738;2023-08-01T14:55:08;23.17;;;21.30;;
48588;SDS011;34369;51.174;6.738;2023-08-01T14:57:41;23.08;;;21.27;;
48588;SDS011;34369;51.174;6.738;2023-08-01T15:00:14;23.48;;;21.77;;